Boulder City, Nevada Weather observations

Data are for observation ending at time listed.
 Day   Time    Ave.   Ave.  Ave.  Vector   Max.   Stn.    Total    Solar   Ave.  
  of    of     Air    Rel.  Wind   Wind    Wind   Baro.  Precip.   Rad.    Soil  
Year   Day     Temp.  Hum.  Speed  Dir.    Gust   Pres.                    Temp. 
2014   (PST)    F      %     mph   deg.    mph     mb.     in.     W/m2     F   
------------------------------------------------------------------------------
 113    8:40   65.3    13    6.2     8     20.4   929.9    0.00     740    73.1
 113    8:50   65.9    13    4.5     5     14.0   930.0    0.00     771    73.2
 113    9:00   65.4    13    8.0    17     16.1   930.1    0.00     797    73.2
 113    9:10   66.1    12    5.4   360     16.4   930.2    0.00     822    73.3
 113    9:20   67.0    12    4.8     5     13.7   930.3    0.00     839    73.5
 113    9:30   67.2    12    3.2   341     15.4   930.5    0.00     853    73.6
 113    9:40   67.2    13    5.3    10     14.5   930.7    0.00     842    73.7
 113    9:50   66.7    13    5.7    12     14.9   930.7    0.00     713    73.9
 113   10:00   66.4    13    7.8    12     18.0   930.7    0.00      81    74.1
 113   10:10   66.5    13    6.9    11     15.2   930.9    0.00     514    74.2
 113   10:20   67.1    13    5.1    20     13.5   930.8    0.00     776    74.4
 113   10:30   67.3    13    6.7    16     15.0   930.9    0.00     925    74.6
 113   10:40   68.0    13    5.7    19     12.2   930.8    0.00     946    74.9
 113   10:50   68.3    13    5.5    18     11.7   930.6    0.00     974    75.1
 113   11:00   68.2    13    5.1    20     11.9   930.5    0.00     961    75.3
 113   11:10   69.1    13    5.0    23     13.7   930.5    0.00     922    75.5
 113   11:20   69.3    13    3.7    18      9.4   930.5    0.00     967    75.8
 113   11:30   69.9    13    5.1    15     15.5   930.5    0.00    1005    76.1
 113   11:40   70.2    13    2.7   357     12.5   930.5    0.00    1008    76.3
 113   11:50   70.3    13    4.2    26      8.6   930.2    0.00    1003    76.6
 113   12:00   71.0    12    2.5   328      8.1   930.1    0.00    1000    76.9
 113   12:10   71.2    12    2.8   353     10.2   930.1    0.00     995    77.2
 113   12:20   71.3    12    5.3    47     14.2   930.0    0.00     990    77.5
 113   12:30   71.5    12    5.5    13     18.0   930.0    0.00     985    77.8
 113   12:40   71.6    12    5.4    14     15.4   930.0    0.00     977    78.1
 113   12:50   71.5    12    6.3    16     13.2   929.9    0.00     964    78.4
 113   13:00   71.5    12    7.6    18     16.4   929.8    0.00     953    78.7
 113   13:10   72.0    12    4.8     4     11.0   929.8    0.00     936    79.0
 113   13:20   72.0    12    3.4     3      9.7   929.7    0.00     919    79.2
 113   13:30   72.9    11    4.1    48      9.7   929.6    0.00     900    79.5
 113   13:40   72.6    11    4.3    19     10.6   929.6    0.00     880    79.8
 113   13:50   73.6    11    1.6    20      8.8   929.5    0.00     852    80.0
 113   14:00   72.9    11    3.9    21     12.6   929.5    0.00     835    80.3
 113   14:10   72.6    11    3.6    43      9.9   929.5    0.00     813    80.5
 113   14:20   73.7    11    3.3   102      8.3   929.4    0.00     788    80.7
 113   14:30   74.2    11    3.0     9      7.1   929.3    0.00     759    80.9
 113   14:40   74.1    11    3.8    47      8.7   929.2    0.00     731    81.1
 113   14:50   74.0    11    3.4    47      8.3   929.1    0.00     706    81.2
 113   15:00   74.9    10    1.3   332      5.0   929.0    0.00     667    81.4
 113   15:10   74.9    11    2.8    33      5.8   928.9    0.00     633    81.5
 113   15:20   75.0    11    3.3    44      8.8   928.9    0.00     597    81.6
 113   15:30   74.1    11    3.2    25      7.7   928.9    0.00     567    81.7
 113   15:40   74.6    10    2.4   359      6.9   928.8    0.00     535    81.7
 113   15:50   74.7    11    2.0    32      5.3   928.8    0.00     488    81.6
 113   16:00   75.0    11    2.9   356      7.0   928.8    0.00     453    81.7
 113   16:10   74.5    11    3.3    50      7.6   928.8    0.00     428    81.6
 113   16:20   74.9    11    2.7    32      5.6   928.8    0.00     386    81.6
 113   16:30   74.6    11    3.9   353     11.0   928.8    0.00     331    81.5
 113   16:40   74.9    10    3.4   358     10.3   928.7    0.00     291    81.4
 113   16:50   73.7    11    4.8    17      8.9   928.6    0.00     264    81.3
 113   17:00   73.5    11    4.3     8      9.0   928.5    0.00     225    81.2
 113   17:10   73.5    11    2.7    10      6.0   928.4    0.00     168    81.1
 113   17:20   73.0    11    2.6    16      6.4   928.2    0.00     131    80.9
 113   17:30   72.3    11    2.9    17      6.1   928.1    0.00     120    80.8
 113   17:40   71.9    12    3.3    20      7.1   928.0    0.00      83    80.7
 113   17:50   71.8    11    3.4    14      7.2   928.1    0.00      53    80.5
 113   18:00   71.5    12    3.1    22      5.6   928.1    0.00      36    80.4
 113   18:10   71.1    12    3.3    22      5.3   928.1    0.00      20    80.3
 113   18:20   70.8    12    2.5    14      5.0   928.1    0.00       7    80.2
 113   18:30   70.3    12    0.5     0      3.0   928.1    0.00       3    80.0
 113   18:40   69.7    12    0.7   358      1.3   928.2    0.00       0    79.8
 113   18:50   69.4    13    1.1     4      2.6   928.2    0.00       0    79.7
 113   19:00   68.8    13    1.0     2      3.0   928.2    0.00       0    79.6
 113   19:10   68.4    13    0.0     0      0.4   928.3    0.00       0    79.5
 113   19:20   67.4    13    0.0     0      0.0   928.4    0.00       0    79.3
 113   19:30   66.5    14    0.0    70      0.8   928.4    0.00       0    79.2
 113   19:40   66.3    14    0.4   192      1.7   928.4    0.00       0    79.0
 113   19:50   66.1    13    0.9   273      1.8   928.6    0.00       0    78.9
 113   20:00   66.4    13    0.7   299      1.7   928.7    0.00       0    78.7
 113   20:10   66.1    13    0.7   243      1.8   928.7    0.00       0    78.6
 113   20:20   65.8    13    1.2   244      1.7   928.8    0.00       0    78.4
 113   20:30   65.4    13    1.2   204      1.8   928.8    0.00       0    78.3
 113   20:40   65.1    13    1.5   236      2.3   928.9    0.00       0    78.1
 113   20:50   64.4    14    1.9   239      2.6   928.9    0.00       0    78.0
 113   21:00   63.8    14    2.0   244      2.5   928.9    0.00       0    77.8
 113   21:10   63.5    14    2.5   213      3.7   928.9    0.00       0    77.6
 113   21:20   64.1    14    3.3   237      4.2   929.0    0.00       0    77.4
 113   21:30   64.0    13    2.5   249      3.9   929.1    0.00       0    77.3
 113   21:40   63.0    14    2.8   220      5.0   929.1    0.00       0    77.1
 113   21:50   63.0    14    3.6   214      4.9   929.1    0.00       0    77.0
 113   22:00   64.4    13    3.7   230      5.1   929.1    0.00       0    76.8
 113   22:10   65.2    13    4.0   232      5.8   929.1    0.00       0    76.7
 113   22:20   65.6    13    4.6   235      6.6   929.2    0.00       0    76.5
 113   22:30   65.7    13    4.8   237      6.4   929.2    0.00       0    76.4
 113   22:40   65.9    12    4.4   230      8.3   929.3    0.00       0    76.3
 113   22:50   65.7    12    4.9   244      6.4   929.2    0.00       0    76.1
 113   23:00   65.3    12    4.6   246      6.8   929.2    0.00       0    76.0
 113   23:10   65.6    12    4.0   237      5.4   929.2    0.00       0    75.8
 113   23:20   65.6    12    4.1   243      5.7   929.2    0.00       0    75.7
 113   23:30   65.4    13    3.4   229      6.1   929.2    0.00       0    75.6
 113   23:40   64.6    13    3.8   242      5.9   929.3    0.00       0    75.5
 113   23:50   64.0    13    4.1   248      5.3   929.3    0.00       0    75.3
 114    0:00   63.4    13    3.8   243      5.2   929.3    0.00       0    75.2
 114    0:10   62.9    14    2.8   247      4.3   929.2    0.00       0    75.1
 114    0:20   62.5    14    2.8   201      4.7   929.3    0.00       0    74.9
 114    0:30   61.5    14    4.1   192      9.0   929.3    0.00       0    74.8
 114    0:40   60.7    15    3.5   211      5.2   929.3    0.00       0    74.7
 114    0:50   60.5    15    3.5   216      5.0   929.2    0.00       0    74.6
 114    1:00   61.0    14    3.5   246      5.6   929.2    0.00       0    74.5
 114    1:10   60.7    15    3.0   214      4.5   929.1    0.00       0    74.4
 114    1:20   60.1    15    3.5   209      5.4   929.0    0.00       0    74.2
 114    1:30   59.6    16    3.0   212      4.3   929.1    0.00       0    74.1
 114    1:40   59.3    16    3.2   221      4.2   929.1    0.00       0    74.0
 114    1:50   59.5    16    3.1   243      4.8   929.1    0.00       0    73.9
 114    2:00   59.3    16    3.0   221      4.1   929.1    0.00       0    73.8
 114    2:10   58.1    17    3.1   212      3.9   929.2    0.00       0    73.7
 114    2:20   57.3    18    2.7   224      3.8   929.2    0.00       0    73.6
 114    2:30   57.5    18    3.1   218      4.5   929.2    0.00       0    73.5
 114    2:40   57.7    18    2.7   217      3.7   929.1    0.00       0    73.4
 114    2:50   57.8    18    3.0   219      4.2   929.0    0.00       0    73.3
 114    3:00   58.0    17    2.2   221      2.9   929.0    0.00       0    73.1
 114    3:10   58.4    17    1.3   253      2.0   928.9    0.00       0    73.0
 114    3:20   57.6    18    1.5   251      2.3   928.9    0.00       0    72.9
 114    3:30   57.7    18    1.8   215      2.4   928.9    0.00       0    72.8
 114    3:40   58.3    17    1.1   276      2.4   928.8    0.00       0    72.7
 114    3:50   57.7    18    1.8   252      2.8   928.9    0.00       0    72.6
 114    4:00   57.2    18    2.6   223      3.2   928.8    0.00       0    72.5
 114    4:10   55.9    19    1.9   232      2.9   928.8    0.00       0    72.4
 114    4:20   56.0    19    2.9   219      4.7   928.9    0.00       0    72.3
 114    4:30   57.1    18    3.1   228      4.7   929.0    0.00       0    72.2
 114    4:40   56.1    19    2.3   217      3.0   929.1    0.00       0    72.1
 114    4:50   55.5    19    2.1   220      2.8   929.1    0.00       0    71.9
 114    5:00   55.4    20    1.9   215      2.8   929.0    0.00       3    71.9
 114    5:10   55.5    20    0.6   244      2.1   929.1    0.00       6    71.8
 114    5:20   55.0    20    0.3   236      1.2   929.1    0.00      12    71.7
 114    5:30   54.8    21    1.8   218      2.9   929.2    0.00      23    71.6
 114    5:40   55.1    22    2.2   217      2.8   929.3    0.00      50    71.4
 114    5:50   57.4    20    2.8   220      3.9   929.4    0.00     145    71.4
 114    6:00   60.3    19    2.7   216      4.3   929.6    0.00     164    71.3
 114    6:10   62.0    17    2.4   210      4.0   929.8    0.00     124    71.2
 114    6:20   62.3    18    2.1   214      4.5   930.0    0.00     249    71.1
 114    6:30   65.0    17    2.0   207      4.7   930.3    0.00     303    71.0
 114    6:40   66.6    16    2.2   189      4.7   930.6    0.00     329    70.9
 114    6:50   70.2    14    0.9    55      2.2   930.8    0.00     374    70.8
 114    7:00   70.1    14    1.8    39      3.5   931.1    0.00     409    70.8
 114    7:10   69.3    15    1.5    31      3.5   931.2    0.00     446    70.7
 114    7:20   70.4    16    1.0    32      2.8   931.3    0.00     483    70.7
 114    7:30   70.7    14    1.1    64      2.6   931.4    0.00     519    70.7
 114    7:40   71.2    14    1.2    41      3.1   931.6    0.00     553    70.7
 114    7:50   70.5    14    2.0    22      4.0   931.6    0.00     589    70.8
 114    8:00   70.3    14    2.3    22      5.5   931.7    0.00     623    70.8
 114    8:10   71.1    14    1.4    18      3.2   931.8    0.00     655    70.9
 114    8:20   71.7    14    2.5    24      5.1   931.9    0.00     686    71.0
 114    8:30   70.8    15    3.1    27      6.6   932.0    0.00     718    71.1

Return to Boulder City, Nevada graphs page.


Western Regional Climate Center,wrcc@dri.edu